ilmateenistus.ee keskkonnaagentuur.ee
EETN Tallinna lennuväli
FTEO31 EETN 221700
TAF EETN 221700Z 2218/2318 30006KT CAVOK BECMG 2218/2220 22006KT
    TEMPO 2310/2318 29010KT=

METAR EETN 221950Z 00000KT CAVOK 08/02 Q1028 NOSIG=
Tallinna lennuväli
EEKA Kärdla lennuväli
METAR EEKA 221950Z NIL=
Kärdla lennuväli
EEKE Kuressaare lennuväli
FCEO32 EETN 221400 AAA
TAF AMD EEKE 221800Z 2215/2221 CNL=

METAR EEKE 221950Z AUTO 00000KT 9999NDV NCD 06/03 Q1028=
Kuressaare lennuväli
EEPU Pärnu lennuväli
METAR EEPU 221950Z NIL=
Pärnu lennuväli
EETU Tartu lennuväli
FCEO32 EETN 222000
TAF EETU 222000Z 2221/2303 VRB02KT CAVOK=

METAR EETU 221950Z 26004KT CAVOK 09/01 Q1028=
Tartu lennuväli
EEEI Ämari lennuväli
METAR EEEI 221950Z VRB01KT CAVOK 07/02 Q1028=
Ämari lennuväli